Time;durP1;ratioP1;P1;durP2;ratioP2;P2;SDS_P1;SDS_P2;PMS_P1;PMS_P2;Temp;Humidity;BMP_temperature;BMP_pressure;BME280_temperature;BME280_humidity;BME280_pressure;Samples;Min_cycle;Max_cycle;Signal;HPM_P1;HPM_P2
2022/12/11 00:03:32;;;;;;;20.97;11.40;;;2.40;94.70;;;;;;21003203;28;20235;-67
2022/12/11 00:13:34;;;;;;;18.03;10.93;;;2.40;94.50;;;;;;21003440;28;20666;-66
2022/12/11 00:23:36;;;;;;;20.07;10.87;;;2.50;94.60;;;;;;21002973;28;20238;-75
2022/12/11 00:33:38;;;;;;;17.13;10.13;;;;;;;;;;21001844;28;20276;-69
2022/12/11 00:43:40;;;;;;;16.77;10.00;;;2.40;94.20;;;;;;20999855;28;20231;-74
2022/12/11 00:53:43;;;;;;;18.30;10.27;;;2.50;94.10;;;;;;21000642;28;20610;-74
2022/12/11 01:03:45;;;;;;;15.97;9.60;;;;;;;;;;20998856;28;20782;-72
2022/12/11 01:13:47;;;;;;;14.03;8.83;;;;;;;;;;20998413;28;20260;-73
2022/12/11 01:23:50;;;;;;;11.90;7.63;;;2.50;93.50;;;;;;20997985;28;20239;-75
2022/12/11 01:33:54;;;;;;;15.33;9.47;;;2.60;93.30;;;;;;20997236;28;20211;-74
2022/12/11 01:44:05;;;;;;;17.00;10.63;;;2.70;93.30;;;;;;20996250;28;20239;-72
2022/12/11 01:54:10;;;;;;;15.17;10.27;;;2.70;93.20;;;;;;20995952;28;20203;-73
2022/12/11 02:04:14;;;;;;;17.63;10.77;;;2.70;93.10;;;;;;20995156;28;20778;-74
2022/12/11 02:14:26;;;;;;;15.67;9.30;;;2.40;92.60;;;;;;20994972;28;20207;-75
2022/12/11 02:24:58;;;;;;;16.03;9.90;;;2.50;92.70;;;;;;20994661;28;20639;-70
2022/12/11 02:35:30;;;;;;;22.80;11.30;;;2.40;92.60;;;;;;20994587;28;20211;-73
2022/12/11 02:45:33;;;;;;;18.93;11.33;;;2.30;92.70;;;;;;20993785;28;20230;-73
2022/12/11 02:55:37;;;;;;;19.07;11.53;;;2.30;93.00;;;;;;20993628;28;20728;-73
2022/12/11 03:05:40;;;;;;;21.90;13.03;;;2.00;93.00;;;;;;20997706;28;20247;-73
2022/12/11 03:21:18;;;;;;;21.33;12.63;;;1.80;93.20;;;;;;20985033;28;21153;-72
2022/12/11 03:31:44;;;;;;;28.13;14.27;;;2.40;93.80;;;;;;20983712;28;20231;-72
2022/12/11 03:41:47;;;;;;;25.50;13.10;;;2.20;93.70;;;;;;20982961;28;20208;-72
2022/12/11 03:51:51;;;;;;;24.27;14.03;;;1.70;93.60;;;;;;20982329;28;20278;-74
2022/12/11 04:01:53;;;;;;;26.30;14.63;;;1.70;93.70;;;;;;20981122;28;20718;-73
2022/12/11 04:11:55;;;;;;;23.70;14.13;;;1.80;93.80;;;;;;20979933;28;20330;-74
2022/12/11 04:32:18;;;;;;;23.17;13.63;;;;;;;;;;20924176;28;20589;-72
2022/12/11 04:42:20;;;;;;;24.73;12.50;;;1.90;93.80;;;;;;20922377;28;20258;-74
2022/12/11 04:52:21;;;;;;;20.63;12.90;;;2.00;93.80;;;;;;20922838;28;20232;-73
2022/12/11 05:02:23;;;;;;;25.83;13.27;;;1.90;93.80;;;;;;20921871;28;20261;-70
2022/12/11 05:12:25;;;;;;;19.83;11.70;;;2.00;93.90;;;;;;20920658;28;20243;-69
2022/12/11 05:22:27;;;;;;;20.07;11.80;;;;;;;;;;20920532;28;20721;-66
2022/12/11 05:32:29;;;;;;;21.07;11.17;;;2.00;93.80;;;;;;20919393;28;20235;-67
2022/12/11 05:42:32;;;;;;;23.50;12.17;;;1.80;93.80;;;;;;20917566;28;20204;-67
2022/12/11 05:52:34;;;;;;;21.93;12.60;;;;;;;;;;20918013;28;20239;-67
2022/12/11 06:02:36;;;;;;;21.07;11.77;;;1.70;93.80;;;;;;20916951;28;20208;-70
2022/12/11 06:12:39;;;;;;;22.13;12.67;;;;;;;;;;20915654;28;20273;-70
2022/12/11 06:22:41;;;;;;;21.33;12.23;;;;;;;;;;20915579;28;20208;-66
2022/12/11 06:32:43;;;;;;;22.50;12.03;;;1.70;93.90;;;;;;20913517;28;20310;-66
2022/12/11 06:42:45;;;;;;;21.20;12.63;;;1.50;93.60;;;;;;20914137;28;20602;-71
2022/12/11 06:52:47;;;;;;;21.10;12.30;;;;;;;;;;20913419;28;20239;-67
2022/12/11 07:02:50;;;;;;;20.93;12.57;;;1.80;93.90;;;;;;20912911;28;20209;-66
2022/12/11 07:12:53;;;;;;;22.93;12.90;;;1.80;93.80;;;;;;20912090;28;20293;-66
2022/12/11 07:22:55;;;;;;;26.00;14.33;;;1.80;93.90;;;;;;20912364;28;20212;-66
2022/12/11 07:32:57;;;;;;;26.37;14.40;;;;;;;;;;20911653;28;20277;-67
2022/12/11 07:42:59;;;;;;;23.27;12.87;;;;;;;;;;20911266;28;20211;-68
2022/12/11 07:53:01;;;;;;;21.30;12.20;;;2.10;93.80;;;;;;20911214;28;20236;-66
2022/12/11 08:03:03;;;;;;;19.87;11.87;;;;;;;;;;20918875;28;20609;-68
2022/12/11 08:13:06;;;;;;;19.10;10.73;;;;;;;;;;20925067;28;20297;-66
2022/12/11 08:23:07;;;;;;;19.00;11.67;;;1.90;93.30;;;;;;20925157;28;20664;-64
2022/12/11 08:33:09;;;;;;;19.53;11.17;;;;;;;;;;20924181;28;20239;-65
2022/12/11 08:43:11;;;;;;;22.07;11.30;;;2.00;93.00;;;;;;20923647;28;20673;-69
2022/12/11 08:53:13;;;;;;;18.97;10.93;;;;;;;;;;20922954;28;20278;-68
2022/12/11 09:03:17;;;;;;;18.80;10.97;;;;;;;;;;20937981;28;20207;-76
2022/12/11 09:13:20;;;;;;;18.17;10.97;;;;;;;;;;20923221;28;20240;-76
2022/12/11 09:23:22;;;;;;;17.17;9.97;;;;;;;;;;20943764;28;20619;-77
2022/12/11 09:33:23;;;;;;;19.47;11.00;;;2.40;92.30;;;;;;20988208;28;20228;-72
2022/12/11 09:43:41;;;;;;;21.90;11.53;;;2.30;92.10;;;;;;20916361;28;20659;-78
2022/12/11 09:53:42;;;;;;;16.90;9.80;;;2.40;92.00;;;;;;20917488;28;20239;-75
2022/12/11 10:03:53;;;;;;;17.53;9.77;;;2.30;91.60;;;;;;20917372;28;20263;-72
2022/12/11 10:14:16;;;;;;;17.80;10.10;;;2.20;91.70;;;;;;20930543;28;20618;-73
2022/12/11 10:24:39;;;;;;;18.93;10.63;;;2.40;91.60;;;;;;20962697;28;20653;-78
2022/12/11 10:35:04;;;;;;;17.27;9.67;;;2.40;91.40;;;;;;20948250;28;20231;-80
2022/12/11 10:45:07;;;;;;;15.30;9.70;;;2.50;91.30;;;;;;20979576;28;20259;-74
2022/12/11 10:55:20;;;;;;;16.20;12.20;;;2.70;90.80;;;;;;20919777;28;20473;-73
2022/12/11 11:05:34;;;;;;;12.00;7.37;;;2.60;90.50;;;;;;20960563;28;20199;-75
2022/12/11 11:15:36;;;;;;;13.97;8.53;;;;;;;;;;20946014;28;20305;-73
2022/12/11 11:25:38;;;;;;;13.93;7.57;;;2.60;90.00;;;;;;20912027;28;20287;-76
2022/12/11 11:35:54;;;;;;;12.50;7.73;;;2.80;89.70;;;;;;20990670;28;20238;-75
2022/12/11 11:46:06;;;;;;;14.77;9.13;;;2.90;89.20;;;;;;21010294;28;20211;-70
2022/12/11 11:56:28;;;;;;;14.57;8.80;;;3.00;89.10;;;;;;20990754;28;20322;-70
2022/12/11 12:06:49;;;;;;;16.60;10.13;;;2.80;89.30;;;;;;20925703;28;20212;-71
2022/12/11 12:17:00;;;;;;;15.17;9.20;;;2.80;89.50;;;;;;20924699;28;20333;-71
2022/12/11 12:27:12;;;;;;;18.27;10.53;;;2.80;89.50;;;;;;20924099;28;20203;-70
2022/12/11 12:38:02;;;;;;;14.50;9.30;;;2.60;90.00;;;;;;20923443;28;20236;-74
2022/12/11 12:48:07;;;;;;;16.07;9.03;;;2.70;90.20;;;;;;20922603;28;20261;-73
2022/12/11 12:58:28;;;;;;;14.53;8.67;;;2.80;90.00;;;;;;20921524;28;20232;-72
2022/12/11 13:08:37;;;;;;;14.27;9.00;;;2.90;90.00;;;;;;20921419;28;20257;-78
2022/12/11 13:18:39;;;;;;;15.87;8.97;;;;;;;;;;20920349;28;20246;-72
2022/12/11 13:28:41;;;;;;;16.13;9.30;;;2.90;89.90;;;;;;20919285;28;20207;-72
2022/12/11 13:38:53;;;;;;;18.20;9.83;;;2.80;89.70;;;;;;20917412;28;20239;-70
2022/12/11 13:51:23;;;;;;;22.50;10.50;;;2.80;90.00;;;;;;20984602;28;20573;-76
2022/12/11 14:01:31;;;;;;;19.20;10.33;;;2.80;90.00;;;;;;20983719;28;20206;-76
2022/12/11 14:11:36;;;;;;;21.13;11.80;;;2.70;90.10;;;;;;20982955;28;20714;-77
2022/12/11 14:21:38;;;;;;;25.77;15.37;;;2.70;90.20;;;;;;20982079;28;20233;-71
2022/12/11 14:31:42;;;;;;;25.33;14.13;;;2.70;90.30;;;;;;20981149;28;20204;-80
2022/12/11 14:42:04;;;;;;;23.03;13.10;;;2.60;90.40;;;;;;20980016;28;20239;-74
2022/12/11 14:52:22;;;;;;;26.33;13.17;;;2.40;90.50;;;;;;20979423;28;20211;-65
2022/12/11 15:02:26;;;;;;;22.93;12.67;;;2.30;90.60;;;;;;20925690;28;20297;-76
2022/12/11 15:12:28;;;;;;;24.63;12.70;;;2.20;90.90;;;;;;20922761;28;20699;-70
2022/12/11 15:22:31;;;;;;;24.07;12.57;;;2.10;90.90;;;;;;20921708;28;20297;-73
2022/12/11 15:32:32;;;;;;;24.47;11.80;;;2.00;91.00;;;;;;20920970;28;20334;-69
2022/12/11 15:42:38;;;;;;;20.60;11.57;;;2.00;91.30;;;;;;20920335;28;20240;-70
2022/12/11 15:52:40;;;;;;;23.90;12.07;;;2.10;91.30;;;;;;20919730;28;20607;-65
2022/12/11 16:02:42;;;;;;;22.00;11.90;;;2.10;91.30;;;;;;20919264;28;20232;-63
2022/12/11 16:12:44;;;;;;;25.67;12.13;;;2.00;91.40;;;;;;20915815;28;20211;-67
2022/12/11 16:22:46;;;;;;;19.07;10.73;;;2.00;91.30;;;;;;20917291;28;20227;-68
2022/12/11 16:32:47;;;;;;;20.23;10.83;;;1.90;91.40;;;;;;20916949;28;20258;-69
2022/12/11 16:42:49;;;;;;;19.10;10.67;;;1.80;91.10;;;;;;20915846;28;20311;-69
2022/12/11 16:52:51;;;;;;;20.27;10.77;;;1.80;91.20;;;;;;20914172;28;20713;-69
2022/12/11 17:02:53;;;;;;;20.83;10.47;;;1.70;91.20;;;;;;20919862;28;20240;-68
2022/12/11 17:12:55;;;;;;;17.60;10.10;;;;;;;;;;20955235;28;20205;-67
2022/12/11 17:22:57;;;;;;;22.93;11.07;;;1.70;91.20;;;;;;20959593;28;20642;-67
2022/12/11 17:32:59;;;;;;;20.53;10.63;;;;;;;;;;20912154;28;20277;-67
2022/12/11 17:43:02;;;;;;;19.53;10.40;;;1.70;91.10;;;;;;20920061;28;20228;-68
2022/12/11 17:53:04;;;;;;;17.47;10.10;;;;;;;;;;20911514;28;20196;-65
2022/12/11 18:03:06;;;;;;;19.33;9.70;;;;;;;;;;20910238;28;20254;-68
2022/12/11 18:13:08;;;;;;;15.23;8.80;;;1.90;90.90;;;;;;20893420;28;20212;-72
2022/12/11 18:23:09;;;;;;;17.33;9.63;;;1.90;90.70;;;;;;20878015;28;20357;-75
2022/12/11 18:33:12;;;;;;;21.40;11.10;;;2.00;90.80;;;;;;20917738;28;20236;-72
2022/12/11 18:43:14;;;;;;;20.60;11.50;;;;;;;;;;20924028;28;20239;-71
2022/12/11 18:53:17;;;;;;;21.37;11.83;;;2.10;90.60;;;;;;20924593;28;20211;-70
2022/12/11 19:03:19;;;;;;;25.33;12.17;;;;;;;;;;20924341;28;20271;-73
2022/12/11 19:13:20;;;;;;;22.07;11.30;;;2.00;90.50;;;;;;20923297;28;20204;-75
2022/12/11 19:23:22;;;;;;;19.43;10.57;;;1.90;90.40;;;;;;20922403;28;20277;-73
2022/12/11 19:33:24;;;;;;;25.13;12.17;;;2.00;90.70;;;;;;20912426;28;20250;-74
2022/12/11 19:43:26;;;;;;;19.90;10.57;;;;;;;;;;20873077;28;20236;-68
2022/12/11 19:53:29;;;;;;;19.00;10.67;;;;;;;;;;20873831;28;20240;-71
2022/12/11 20:03:30;;;;;;;27.80;11.77;;;2.00;90.40;;;;;;20899008;28;20232;-75
2022/12/11 20:13:32;;;;;;;18.43;10.00;;;;;;;;;;20884971;28;20261;-73
2022/12/11 20:23:35;;;;;;;19.93;11.30;;;2.00;90.40;;;;;;20851590;28;20709;-76
2022/12/11 20:33:37;;;;;;;19.13;10.93;;;2.10;90.30;;;;;;20838278;28;20212;-73
2022/12/11 20:43:39;;;;;;;18.70;10.83;;;2.10;90.20;;;;;;20913603;28;20499;-76
2022/12/11 20:53:41;;;;;;;19.03;9.87;;;2.00;90.20;;;;;;20912429;28;20207;-77
2022/12/11 21:03:44;;;;;;;18.37;9.50;;;;;;;;;;20912483;28;20246;-76
2022/12/11 21:13:45;;;;;;;21.33;11.17;;;2.00;90.30;;;;;;20855832;28;20200;-74
2022/12/11 21:23:47;;;;;;;18.63;9.27;;;2.00;90.20;;;;;;20828449;28;20328;-75
2022/12/11 21:33:49;;;;;;;24.23;11.20;;;2.00;90.10;;;;;;20829777;28;20702;-75
2022/12/11 21:43:54;;;;;;;20.63;10.83;;;1.90;90.10;;;;;;20827712;28;20263;-76
2022/12/11 21:54:17;;;;;;;18.50;10.57;;;1.90;90.10;;;;;;20827232;28;20200;-76
2022/12/11 22:04:19;;;;;;;19.03;10.27;;;;;;;;;;20829288;28;20236;-75
2022/12/11 22:14:21;;;;;;;18.80;13.15;;;2.20;90.20;;;;;;20851883;28;20925;-70
2022/12/11 22:24:22;;;;;;;19.13;10.23;;;2.00;90.20;;;;;;20842721;28;20358;-72
2022/12/11 22:34:24;;;;;;;18.37;9.77;;;2.00;90.00;;;;;;20842326;28;20653;-71
2022/12/11 22:44:26;;;;;;;16.63;8.93;;;1.90;90.00;;;;;;20841271;28;20318;-72
2022/12/11 22:54:28;;;;;;;18.43;9.20;;;1.80;89.90;;;;;;20842303;28;20247;-71
2022/12/11 23:04:29;;;;;;;20.03;10.37;;;1.90;90.10;;;;;;20842070;28;20605;-72
2022/12/11 23:14:31;;;;;;;23.00;10.77;;;1.90;90.30;;;;;;20840466;28;20255;-71
2022/12/11 23:24:33;;;;;;;20.93;11.67;;;1.80;90.40;;;;;;20838129;28;20267;-72
2022/12/11 23:34:35;;;;;;;21.07;10.67;;;;;;;;;;20839450;28;20208;-72
2022/12/11 23:44:37;;;;;;;20.77;11.33;;;;;;;;;;20838450;28;20236;-71
2022/12/11 23:54:39;;;;;;;25.07;13.73;;;;;;;;;;20837750;28;20209;-71
